Artesian, Iowa
Current Conditions -  °F | °C
As of 7:54 AM on Sunday 25 Jan 2015 (Local Time) from KALO Reporting Station
Light Snow Light Snow  
Wind Chill: 23°   Ceiling: 1200
Heat Index: 33°   Visibility: 2.5mi
Dew Point: 32°   Wind: 14mph
Humidity: 96%   Direction: 50°NE
Pressure: 29.76"   Gusts: NA
Location:  42.787°N, 92.4284°W
Report Text: KALO 251354Z AUTO 05012KT 2 1/2SM -SN BR OVC012 01/00 A2976 RMK AO2 SLP086 P0002 T00060000
Loading
Personal Weather Stations






























Interactive Weather Map New forecast layout! Learn more

10-Day Weather Forecast

Advertisements
Track Severe Weather on mobile